sensor_id;sensor_type;location;lat;lon;timestamp;P1;durP1;ratioP1;P2;durP2;ratioP2
1679;SDS011;838;51.794;12.258;2022-09-09T00:00:12;5.87;;;4.60;;
1679;SDS011;838;51.794;12.258;2022-09-09T00:02:39;4.70;;;3.87;;
1679;SDS011;838;51.794;12.258;2022-09-09T00:05:28;5.40;;;4.00;;
1679;SDS011;838;51.794;12.258;2022-09-09T00:08:01;4.40;;;3.13;;
1679;SDS011;838;51.794;12.258;2022-09-09T00:10:30;4.70;;;3.40;;
1679;SDS011;838;51.794;12.258;2022-09-09T00:13:01;8.10;;;3.67;;
1679;SDS011;838;51.794;12.258;2022-09-09T00:15:31;5.33;;;3.30;;
1679;SDS011;838;51.794;12.258;2022-09-09T00:23:39;4.53;;;2.90;;
1679;SDS011;838;51.794;12.258;2022-09-09T00:28:39;3.80;;;2.80;;
1679;SDS011;838;51.794;12.258;2022-09-09T00:31:12;4.70;;;2.97;;
1679;SDS011;838;51.794;12.258;2022-09-09T00:33:41;4.37;;;2.30;;
1679;SDS011;838;51.794;12.258;2022-09-09T00:36:15;4.93;;;2.60;;
1679;SDS011;838;51.794;12.258;2022-09-09T00:38:47;3.67;;;2.37;;
1679;SDS011;838;51.794;12.258;2022-09-09T00:41:26;6.00;;;2.70;;
1679;SDS011;838;51.794;12.258;2022-09-09T00:44:34;4.23;;;2.43;;
1679;SDS011;838;51.794;12.258;2022-09-09T00:50:00;4.00;;;2.10;;
1679;SDS011;838;51.794;12.258;2022-09-09T00:53:02;4.63;;;2.73;;
1679;SDS011;838;51.794;12.258;2022-09-09T00:58:09;4.00;;;2.47;;
1679;SDS011;838;51.794;12.258;2022-09-09T01:01:17;3.87;;;2.13;;
1679;SDS011;838;51.794;12.258;2022-09-09T01:03:35;4.40;;;2.13;;
1679;SDS011;838;51.794;12.258;2022-09-09T01:06:11;4.33;;;2.37;;
1679;SDS011;838;51.794;12.258;2022-09-09T01:11:26;5.40;;;2.27;;
1679;SDS011;838;51.794;12.258;2022-09-09T01:14:24;3.77;;;1.80;;
1679;SDS011;838;51.794;12.258;2022-09-09T01:16:57;5.43;;;2.27;;
1679;SDS011;838;51.794;12.258;2022-09-09T01:27:54;4.73;;;2.50;;
1679;SDS011;838;51.794;12.258;2022-09-09T01:30:22;7.53;;;2.07;;
1679;SDS011;838;51.794;12.258;2022-09-09T01:32:50;5.80;;;2.53;;
1679;SDS011;838;51.794;12.258;2022-09-09T01:35:25;3.90;;;2.60;;
1679;SDS011;838;51.794;12.258;2022-09-09T01:37:55;4.80;;;2.60;;
1679;SDS011;838;51.794;12.258;2022-09-09T01:40:21;4.33;;;2.60;;
1679;SDS011;838;51.794;12.258;2022-09-09T01:42:47;7.90;;;3.50;;
1679;SDS011;838;51.794;12.258;2022-09-09T01:45:13;6.43;;;3.00;;
1679;SDS011;838;51.794;12.258;2022-09-09T01:47:39;4.13;;;2.83;;
1679;SDS011;838;51.794;12.258;2022-09-09T01:50:05;7.53;;;2.97;;
1679;SDS011;838;51.794;12.258;2022-09-09T01:52:33;8.07;;;2.97;;
1679;SDS011;838;51.794;12.258;2022-09-09T01:55:01;5.77;;;2.93;;
1679;SDS011;838;51.794;12.258;2022-09-09T01:57:28;8.80;;;3.27;;
1679;SDS011;838;51.794;12.258;2022-09-09T02:00:05;4.47;;;2.77;;
1679;SDS011;838;51.794;12.258;2022-09-09T02:02:36;4.73;;;2.97;;
1679;SDS011;838;51.794;12.258;2022-09-09T02:05:17;5.37;;;3.20;;
1679;SDS011;838;51.794;12.258;2022-09-09T02:08:15;4.43;;;2.50;;
1679;SDS011;838;51.794;12.258;2022-09-09T02:11:07;4.47;;;3.20;;
1679;SDS011;838;51.794;12.258;2022-09-09T02:13:38;6.23;;;3.03;;
1679;SDS011;838;51.794;12.258;2022-09-09T02:16:08;7.30;;;3.10;;
1679;SDS011;838;51.794;12.258;2022-09-09T02:18:51;4.77;;;2.70;;
1679;SDS011;838;51.794;12.258;2022-09-09T02:21:24;5.37;;;3.07;;
1679;SDS011;838;51.794;12.258;2022-09-09T02:23:53;5.20;;;2.90;;
1679;SDS011;838;51.794;12.258;2022-09-09T02:26:22;5.30;;;2.87;;
1679;SDS011;838;51.794;12.258;2022-09-09T02:28:51;5.47;;;2.70;;
1679;SDS011;838;51.794;12.258;2022-09-09T02:31:20;6.53;;;2.80;;
1679;SDS011;838;51.794;12.258;2022-09-09T02:33:54;4.17;;;2.80;;
1679;SDS011;838;51.794;12.258;2022-09-09T02:36:24;5.67;;;2.60;;
1679;SDS011;838;51.794;12.258;2022-09-09T02:38:58;4.10;;;2.10;;
1679;SDS011;838;51.794;12.258;2022-09-09T02:41:26;4.70;;;2.80;;
1679;SDS011;838;51.794;12.258;2022-09-09T02:43:57;4.30;;;2.40;;
1679;SDS011;838;51.794;12.258;2022-09-09T02:46:33;7.17;;;2.40;;
1679;SDS011;838;51.794;12.258;2022-09-09T02:52:14;4.20;;;2.83;;
1679;SDS011;838;51.794;12.258;2022-09-09T02:54:43;3.93;;;2.60;;
1679;SDS011;838;51.794;12.258;2022-09-09T02:57:11;7.27;;;2.80;;
1679;SDS011;838;51.794;12.258;2022-09-09T02:59:41;5.50;;;2.90;;
1679;SDS011;838;51.794;12.258;2022-09-09T03:02:09;4.27;;;2.30;;
1679;SDS011;838;51.794;12.258;2022-09-09T03:04:36;4.77;;;2.80;;
1679;SDS011;838;51.794;12.258;2022-09-09T03:07:03;5.23;;;2.80;;
1679;SDS011;838;51.794;12.258;2022-09-09T03:09:29;4.30;;;2.73;;
1679;SDS011;838;51.794;12.258;2022-09-09T03:11:55;6.63;;;2.40;;
1679;SDS011;838;51.794;12.258;2022-09-09T03:14:22;3.57;;;2.47;;
1679;SDS011;838;51.794;12.258;2022-09-09T03:16:50;5.70;;;2.60;;
1679;SDS011;838;51.794;12.258;2022-09-09T03:19:16;7.13;;;2.63;;
1679;SDS011;838;51.794;12.258;2022-09-09T03:21:43;4.17;;;2.60;;
1679;SDS011;838;51.794;12.258;2022-09-09T03:24:10;3.50;;;2.40;;
1679;SDS011;838;51.794;12.258;2022-09-09T03:26:36;7.13;;;2.53;;
1679;SDS011;838;51.794;12.258;2022-09-09T03:29:02;7.43;;;3.00;;
1679;SDS011;838;51.794;12.258;2022-09-09T03:31:32;5.90;;;2.43;;
1679;SDS011;838;51.794;12.258;2022-09-09T03:33:58;4.33;;;2.83;;
1679;SDS011;838;51.794;12.258;2022-09-09T03:36:25;6.83;;;2.70;;
1679;SDS011;838;51.794;12.258;2022-09-09T03:38:51;4.17;;;2.97;;
1679;SDS011;838;51.794;12.258;2022-09-09T03:41:19;5.47;;;3.23;;
1679;SDS011;838;51.794;12.258;2022-09-09T03:43:48;4.00;;;2.47;;
1679;SDS011;838;51.794;12.258;2022-09-09T03:46:17;6.57;;;3.10;;
1679;SDS011;838;51.794;12.258;2022-09-09T03:48:44;6.17;;;2.80;;
1679;SDS011;838;51.794;12.258;2022-09-09T03:51:09;5.67;;;3.00;;
1679;SDS011;838;51.794;12.258;2022-09-09T03:53:35;4.43;;;2.77;;
1679;SDS011;838;51.794;12.258;2022-09-09T03:56:03;4.10;;;3.00;;
1679;SDS011;838;51.794;12.258;2022-09-09T03:58:31;6.40;;;3.23;;
1679;SDS011;838;51.794;12.258;2022-09-09T04:03:25;6.13;;;2.90;;
1679;SDS011;838;51.794;12.258;2022-09-09T04:05:51;4.47;;;3.07;;
1679;SDS011;838;51.794;12.258;2022-09-09T04:08:18;7.63;;;4.30;;
1679;SDS011;838;51.794;12.258;2022-09-09T04:10:45;5.73;;;3.00;;
1679;SDS011;838;51.794;12.258;2022-09-09T04:13:14;6.13;;;3.07;;
1679;SDS011;838;51.794;12.258;2022-09-09T04:15:43;4.33;;;2.70;;
1679;SDS011;838;51.794;12.258;2022-09-09T04:18:10;6.67;;;2.53;;
1679;SDS011;838;51.794;12.258;2022-09-09T04:20:37;5.10;;;2.40;;
1679;SDS011;838;51.794;12.258;2022-09-09T04:23:04;3.40;;;2.40;;
1679;SDS011;838;51.794;12.258;2022-09-09T04:25:30;3.63;;;2.17;;
1679;SDS011;838;51.794;12.258;2022-09-09T04:27:57;5.13;;;2.50;;
1679;SDS011;838;51.794;12.258;2022-09-09T04:30:23;4.77;;;3.07;;
1679;SDS011;838;51.794;12.258;2022-09-09T04:32:50;4.30;;;2.77;;
1679;SDS011;838;51.794;12.258;2022-09-09T04:35:16;5.37;;;2.43;;
1679;SDS011;838;51.794;12.258;2022-09-09T04:37:41;3.63;;;2.10;;
1679;SDS011;838;51.794;12.258;2022-09-09T04:40:07;5.20;;;2.70;;
1679;SDS011;838;51.794;12.258;2022-09-09T04:42:38;5.37;;;2.77;;
1679;SDS011;838;51.794;12.258;2022-09-09T04:45:04;5.23;;;2.73;;
1679;SDS011;838;51.794;12.258;2022-09-09T04:47:31;4.33;;;2.50;;
1679;SDS011;838;51.794;12.258;2022-09-09T04:49:57;6.37;;;3.03;;
1679;SDS011;838;51.794;12.258;2022-09-09T04:52:23;5.40;;;3.03;;
1679;SDS011;838;51.794;12.258;2022-09-09T04:54:49;6.00;;;3.50;;
1679;SDS011;838;51.794;12.258;2022-09-09T04:57:14;6.73;;;3.00;;
1679;SDS011;838;51.794;12.258;2022-09-09T04:59:40;6.03;;;2.97;;
1679;SDS011;838;51.794;12.258;2022-09-09T05:02:06;6.57;;;3.47;;
1679;SDS011;838;51.794;12.258;2022-09-09T05:04:31;8.60;;;2.90;;
1679;SDS011;838;51.794;12.258;2022-09-09T05:06:58;6.60;;;2.67;;
1679;SDS011;838;51.794;12.258;2022-09-09T05:09:24;4.73;;;3.20;;
1679;SDS011;838;51.794;12.258;2022-09-09T05:11:49;4.70;;;3.07;;
1679;SDS011;838;51.794;12.258;2022-09-09T05:14:16;11.40;;;2.67;;
1679;SDS011;838;51.794;12.258;2022-09-09T05:16:42;4.70;;;2.73;;
1679;SDS011;838;51.794;12.258;2022-09-09T05:19:10;4.70;;;2.80;;
1679;SDS011;838;51.794;12.258;2022-09-09T05:21:36;4.03;;;2.43;;
1679;SDS011;838;51.794;12.258;2022-09-09T05:24:02;4.13;;;2.60;;
1679;SDS011;838;51.794;12.258;2022-09-09T05:26:28;5.70;;;3.60;;
1679;SDS011;838;51.794;12.258;2022-09-09T05:28:57;4.77;;;2.53;;
1679;SDS011;838;51.794;12.258;2022-09-09T05:31:24;5.90;;;2.90;;
1679;SDS011;838;51.794;12.258;2022-09-09T05:33:53;8.60;;;3.57;;
1679;SDS011;838;51.794;12.258;2022-09-09T05:36:19;4.87;;;2.93;;
1679;SDS011;838;51.794;12.258;2022-09-09T05:38:46;4.60;;;2.93;;
1679;SDS011;838;51.794;12.258;2022-09-09T05:41:13;8.63;;;3.40;;
1679;SDS011;838;51.794;12.258;2022-09-09T05:43:42;6.33;;;2.80;;
1679;SDS011;838;51.794;12.258;2022-09-09T05:46:22;4.50;;;3.07;;
1679;SDS011;838;51.794;12.258;2022-09-09T05:48:50;6.47;;;3.13;;
1679;SDS011;838;51.794;12.258;2022-09-09T05:51:17;6.13;;;3.80;;
1679;SDS011;838;51.794;12.258;2022-09-09T05:53:55;7.30;;;3.07;;
1679;SDS011;838;51.794;12.258;2022-09-09T05:56:24;4.63;;;2.73;;
1679;SDS011;838;51.794;12.258;2022-09-09T05:58:51;3.90;;;2.80;;
1679;SDS011;838;51.794;12.258;2022-09-09T06:01:23;6.90;;;2.97;;
1679;SDS011;838;51.794;12.258;2022-09-09T06:03:51;5.53;;;2.53;;
1679;SDS011;838;51.794;12.258;2022-09-09T06:06:18;6.10;;;2.80;;
1679;SDS011;838;51.794;12.258;2022-09-09T06:08:46;4.60;;;2.50;;
1679;SDS011;838;51.794;12.258;2022-09-09T06:11:13;4.90;;;2.90;;
1679;SDS011;838;51.794;12.258;2022-09-09T06:13:39;5.90;;;2.73;;
1679;SDS011;838;51.794;12.258;2022-09-09T06:16:08;8.27;;;2.90;;
1679;SDS011;838;51.794;12.258;2022-09-09T06:18:41;5.30;;;3.00;;
1679;SDS011;838;51.794;12.258;2022-09-09T06:21:09;4.70;;;2.50;;
1679;SDS011;838;51.794;12.258;2022-09-09T06:23:43;4.90;;;2.33;;
1679;SDS011;838;51.794;12.258;2022-09-09T06:26:23;4.07;;;2.20;;
1679;SDS011;838;51.794;12.258;2022-09-09T06:28:51;6.27;;;2.40;;
1679;SDS011;838;51.794;12.258;2022-09-09T06:31:18;5.43;;;2.00;;
1679;SDS011;838;51.794;12.258;2022-09-09T06:33:47;4.50;;;2.50;;
1679;SDS011;838;51.794;12.258;2022-09-09T06:36:18;4.70;;;2.20;;
1679;SDS011;838;51.794;12.258;2022-09-09T06:38:45;4.90;;;2.37;;
1679;SDS011;838;51.794;12.258;2022-09-09T06:41:13;5.00;;;2.73;;
1679;SDS011;838;51.794;12.258;2022-09-09T06:43:40;4.63;;;2.30;;
1679;SDS011;838;51.794;12.258;2022-09-09T06:48:36;6.53;;;2.77;;
1679;SDS011;838;51.794;12.258;2022-09-09T06:51:04;4.20;;;2.43;;
1679;SDS011;838;51.794;12.258;2022-09-09T06:53:31;4.57;;;1.77;;
1679;SDS011;838;51.794;12.258;2022-09-09T06:56:01;5.13;;;2.80;;
1679;SDS011;838;51.794;12.258;2022-09-09T06:58:48;5.23;;;2.60;;
1679;SDS011;838;51.794;12.258;2022-09-09T07:01:16;3.60;;;2.20;;
1679;SDS011;838;51.794;12.258;2022-09-09T07:03:50;5.63;;;2.60;;
1679;SDS011;838;51.794;12.258;2022-09-09T07:06:19;3.87;;;1.77;;
1679;SDS011;838;51.794;12.258;2022-09-09T07:08:59;5.23;;;2.37;;
1679;SDS011;838;51.794;12.258;2022-09-09T07:11:30;7.53;;;2.80;;
1679;SDS011;838;51.794;12.258;2022-09-09T07:13:58;4.83;;;2.20;;
1679;SDS011;838;51.794;12.258;2022-09-09T07:16:25;4.70;;;2.47;;
1679;SDS011;838;51.794;12.258;2022-09-09T07:18:52;4.80;;;2.00;;
1679;SDS011;838;51.794;12.258;2022-09-09T07:21:20;5.27;;;2.30;;
1679;SDS011;838;51.794;12.258;2022-09-09T07:23:46;4.30;;;2.00;;
1679;SDS011;838;51.794;12.258;2022-09-09T07:26:16;4.90;;;2.50;;
1679;SDS011;838;51.794;12.258;2022-09-09T07:28:44;5.37;;;2.23;;
1679;SDS011;838;51.794;12.258;2022-09-09T07:31:14;4.50;;;2.00;;
1679;SDS011;838;51.794;12.258;2022-09-09T07:33:42;3.93;;;2.23;;
1679;SDS011;838;51.794;12.258;2022-09-09T07:36:18;4.50;;;1.90;;
1679;SDS011;838;51.794;12.258;2022-09-09T07:38:56;9.10;;;1.93;;
1679;SDS011;838;51.794;12.258;2022-09-09T07:41:24;4.17;;;1.60;;
1679;SDS011;838;51.794;12.258;2022-09-09T07:43:55;4.53;;;1.43;;
1679;SDS011;838;51.794;12.258;2022-09-09T07:46:21;3.90;;;1.60;;
1679;SDS011;838;51.794;12.258;2022-09-09T07:48:51;3.53;;;1.60;;
1679;SDS011;838;51.794;12.258;2022-09-09T07:51:22;4.43;;;1.50;;
1679;SDS011;838;51.794;12.258;2022-09-09T07:53:55;4.30;;;1.20;;
1679;SDS011;838;51.794;12.258;2022-09-09T07:56:25;3.30;;;1.30;;
1679;SDS011;838;51.794;12.258;2022-09-09T07:58:56;6.47;;;1.60;;
1679;SDS011;838;51.794;12.258;2022-09-09T08:01:25;6.30;;;1.20;;
1679;SDS011;838;51.794;12.258;2022-09-09T08:03:59;3.30;;;1.23;;
1679;SDS011;838;51.794;12.258;2022-09-09T08:06:38;4.83;;;1.33;;
1679;SDS011;838;51.794;12.258;2022-09-09T08:09:05;3.30;;;1.43;;
1679;SDS011;838;51.794;12.258;2022-09-09T08:11:31;4.63;;;1.10;;
1679;SDS011;838;51.794;12.258;2022-09-09T08:13:58;4.97;;;0.90;;
1679;SDS011;838;51.794;12.258;2022-09-09T08:16:25;4.60;;;1.30;;
1679;SDS011;838;51.794;12.258;2022-09-09T08:18:52;4.73;;;1.10;;
1679;SDS011;838;51.794;12.258;2022-09-09T08:21:22;3.90;;;1.23;;
1679;SDS011;838;51.794;12.258;2022-09-09T08:23:51;7.20;;;1.13;;
1679;SDS011;838;51.794;12.258;2022-09-09T08:26:19;3.23;;;1.10;;
1679;SDS011;838;51.794;12.258;2022-09-09T08:28:47;3.60;;;1.13;;
1679;SDS011;838;51.794;12.258;2022-09-09T08:31:18;2.90;;;0.93;;
1679;SDS011;838;51.794;12.258;2022-09-09T08:33:44;3.40;;;1.03;;
1679;SDS011;838;51.794;12.258;2022-09-09T08:36:13;3.90;;;1.27;;
1679;SDS011;838;51.794;12.258;2022-09-09T08:38:41;3.93;;;0.93;;
1679;SDS011;838;51.794;12.258;2022-09-09T08:43:46;3.10;;;1.20;;
1679;SDS011;838;51.794;12.258;2022-09-09T08:46:21;6.60;;;1.53;;
1679;SDS011;838;51.794;12.258;2022-09-09T08:49:02;3.30;;;0.93;;
1679;SDS011;838;51.794;12.258;2022-09-09T08:51:41;3.80;;;1.30;;
1679;SDS011;838;51.794;12.258;2022-09-09T08:54:07;6.60;;;1.23;;
1679;SDS011;838;51.794;12.258;2022-09-09T08:56:35;4.90;;;1.27;;
1679;SDS011;838;51.794;12.258;2022-09-09T08:59:02;3.93;;;0.90;;
1679;SDS011;838;51.794;12.258;2022-09-09T09:06:39;4.53;;;1.10;;
1679;SDS011;838;51.794;12.258;2022-09-09T09:09:31;4.63;;;1.33;;
1679;SDS011;838;51.794;12.258;2022-09-09T09:12:21;3.10;;;0.87;;
1679;SDS011;838;51.794;12.258;2022-09-09T09:14:49;3.73;;;0.87;;
1679;SDS011;838;51.794;12.258;2022-09-09T09:17:19;2.70;;;0.63;;
1679;SDS011;838;51.794;12.258;2022-09-09T09:19:47;4.23;;;1.27;;
1679;SDS011;838;51.794;12.258;2022-09-09T09:24:57;4.00;;;0.60;;
1679;SDS011;838;51.794;12.258;2022-09-09T09:30:02;4.47;;;0.77;;
1679;SDS011;838;51.794;12.258;2022-09-09T09:32:39;5.70;;;1.00;;
1679;SDS011;838;51.794;12.258;2022-09-09T09:35:10;3.27;;;0.87;;
1679;SDS011;838;51.794;12.258;2022-09-09T09:37:37;4.30;;;1.00;;
1679;SDS011;838;51.794;12.258;2022-09-09T09:40:16;5.40;;;0.90;;
1679;SDS011;838;51.794;12.258;2022-09-09T09:42:54;2.80;;;0.90;;
1679;SDS011;838;51.794;12.258;2022-09-09T09:48:08;3.20;;;0.83;;
1679;SDS011;838;51.794;12.258;2022-09-09T09:51:22;3.03;;;0.93;;
1679;SDS011;838;51.794;12.258;2022-09-09T09:56:01;2.60;;;0.90;;
1679;SDS011;838;51.794;12.258;2022-09-09T10:01:23;3.20;;;1.03;;
1679;SDS011;838;51.794;12.258;2022-09-09T10:03:51;3.37;;;0.90;;
1679;SDS011;838;51.794;12.258;2022-09-09T10:06:28;4.13;;;0.80;;
1679;SDS011;838;51.794;12.258;2022-09-09T10:08:58;6.60;;;1.10;;
1679;SDS011;838;51.794;12.258;2022-09-09T10:11:30;4.07;;;1.00;;
1679;SDS011;838;51.794;12.258;2022-09-09T10:14:20;5.73;;;1.00;;
1679;SDS011;838;51.794;12.258;2022-09-09T10:17:06;6.60;;;0.80;;
1679;SDS011;838;51.794;12.258;2022-09-09T10:19:43;4.67;;;0.50;;
1679;SDS011;838;51.794;12.258;2022-09-09T10:22:26;5.93;;;0.90;;
1679;SDS011;838;51.794;12.258;2022-09-09T10:33:01;4.63;;;0.80;;
1679;SDS011;838;51.794;12.258;2022-09-09T10:38:39;4.10;;;0.90;;
1679;SDS011;838;51.794;12.258;2022-09-09T10:41:19;3.07;;;0.60;;
1679;SDS011;838;51.794;12.258;2022-09-09T10:47:00;3.87;;;1.00;;
1679;SDS011;838;51.794;12.258;2022-09-09T10:55:20;3.37;;;0.70;;
1679;SDS011;838;51.794;12.258;2022-09-09T10:57:55;4.20;;;0.90;;
1679;SDS011;838;51.794;12.258;2022-09-09T11:00:24;3.43;;;0.97;;
1679;SDS011;838;51.794;12.258;2022-09-09T11:03:03;4.43;;;0.80;;
1679;SDS011;838;51.794;12.258;2022-09-09T11:05:31;2.73;;;0.60;;
1679;SDS011;838;51.794;12.258;2022-09-09T11:08:21;3.97;;;0.87;;
1679;SDS011;838;51.794;12.258;2022-09-09T11:10:52;3.30;;;0.80;;
1679;SDS011;838;51.794;12.258;2022-09-09T11:13:28;4.50;;;0.80;;
1679;SDS011;838;51.794;12.258;2022-09-09T11:16:25;5.43;;;1.00;;
1679;SDS011;838;51.794;12.258;2022-09-09T11:21:53;3.90;;;0.73;;
1679;SDS011;838;51.794;12.258;2022-09-09T11:26:55;2.83;;;0.77;;
1679;SDS011;838;51.794;12.258;2022-09-09T11:33:03;3.63;;;1.07;;
1679;SDS011;838;51.794;12.258;2022-09-09T11:38:18;6.30;;;1.13;;
1679;SDS011;838;51.794;12.258;2022-09-09T11:41:01;5.80;;;1.10;;
1679;SDS011;838;51.794;12.258;2022-09-09T11:43:32;4.67;;;1.00;;
1679;SDS011;838;51.794;12.258;2022-09-09T11:46:09;6.00;;;1.20;;
1679;SDS011;838;51.794;12.258;2022-09-09T11:51:09;4.10;;;0.97;;
1679;SDS011;838;51.794;12.258;2022-09-09T11:53:59;7.20;;;1.20;;
1679;SDS011;838;51.794;12.258;2022-09-09T11:57:04;4.57;;;1.53;;
1679;SDS011;838;51.794;12.258;2022-09-09T11:59:49;3.40;;;0.90;;
1679;SDS011;838;51.794;12.258;2022-09-09T12:02:27;3.70;;;0.73;;
1679;SDS011;838;51.794;12.258;2022-09-09T12:05:00;5.10;;;0.60;;
1679;SDS011;838;51.794;12.258;2022-09-09T12:10:22;3.23;;;0.40;;
1679;SDS011;838;51.794;12.258;2022-09-09T12:13:15;4.73;;;1.00;;
1679;SDS011;838;51.794;12.258;2022-09-09T12:19:02;2.97;;;0.70;;
1679;SDS011;838;51.794;12.258;2022-09-09T12:24:15;2.77;;;0.57;;
1679;SDS011;838;51.794;12.258;2022-09-09T12:32:27;4.03;;;0.80;;
1679;SDS011;838;51.794;12.258;2022-09-09T12:34:55;2.73;;;0.70;;
1679;SDS011;838;51.794;12.258;2022-09-09T12:37:37;3.13;;;1.00;;
1679;SDS011;838;51.794;12.258;2022-09-09T12:40:20;2.47;;;0.60;;
1679;SDS011;838;51.794;12.258;2022-09-09T12:42:47;3.27;;;0.60;;
1679;SDS011;838;51.794;12.258;2022-09-09T12:45:20;3.50;;;1.10;;
1679;SDS011;838;51.794;12.258;2022-09-09T12:47:59;4.03;;;0.73;;
1679;SDS011;838;51.794;12.258;2022-09-09T12:50:36;5.37;;;0.90;;
1679;SDS011;838;51.794;12.258;2022-09-09T12:58:21;5.60;;;1.50;;
1679;SDS011;838;51.794;12.258;2022-09-09T13:00:51;5.00;;;0.93;;
1679;SDS011;838;51.794;12.258;2022-09-09T13:03:19;2.80;;;0.77;;
1679;SDS011;838;51.794;12.258;2022-09-09T13:05:47;3.20;;;0.70;;
1679;SDS011;838;51.794;12.258;2022-09-09T13:08:14;3.80;;;0.90;;
1679;SDS011;838;51.794;12.258;2022-09-09T13:15:56;3.30;;;0.77;;
1679;SDS011;838;51.794;12.258;2022-09-09T13:18:26;2.90;;;0.50;;
1679;SDS011;838;51.794;12.258;2022-09-09T13:20:57;3.20;;;0.57;;
1679;SDS011;838;51.794;12.258;2022-09-09T13:23:24;3.33;;;0.87;;
1679;SDS011;838;51.794;12.258;2022-09-09T13:28:51;3.50;;;0.80;;
1679;SDS011;838;51.794;12.258;2022-09-09T13:31:29;5.20;;;0.83;;
1679;SDS011;838;51.794;12.258;2022-09-09T13:33:58;4.87;;;0.70;;
1679;SDS011;838;51.794;12.258;2022-09-09T13:36:30;4.00;;;1.00;;
1679;SDS011;838;51.794;12.258;2022-09-09T13:38:58;3.40;;;0.70;;
1679;SDS011;838;51.794;12.258;2022-09-09T13:41:28;3.63;;;0.80;;
1679;SDS011;838;51.794;12.258;2022-09-09T13:44:14;4.40;;;1.00;;
1679;SDS011;838;51.794;12.258;2022-09-09T13:46:46;2.87;;;0.77;;
1679;SDS011;838;51.794;12.258;2022-09-09T13:51:46;3.53;;;0.63;;
1679;SDS011;838;51.794;12.258;2022-09-09T13:54:20;4.90;;;0.87;;
1679;SDS011;838;51.794;12.258;2022-09-09T13:56:47;4.20;;;0.83;;
1679;SDS011;838;51.794;12.258;2022-09-09T13:59:18;2.70;;;0.60;;
1679;SDS011;838;51.794;12.258;2022-09-09T14:01:45;4.70;;;0.97;;
1679;SDS011;838;51.794;12.258;2022-09-09T14:04:13;2.77;;;0.67;;
1679;SDS011;838;51.794;12.258;2022-09-09T14:06:40;3.00;;;1.00;;
1679;SDS011;838;51.794;12.258;2022-09-09T14:09:07;3.90;;;0.83;;
1679;SDS011;838;51.794;12.258;2022-09-09T14:11:39;2.50;;;0.60;;
1679;SDS011;838;51.794;12.258;2022-09-09T14:14:07;5.27;;;0.80;;
1679;SDS011;838;51.794;12.258;2022-09-09T14:16:33;3.00;;;0.60;;
1679;SDS011;838;51.794;12.258;2022-09-09T14:19:01;3.27;;;0.80;;
1679;SDS011;838;51.794;12.258;2022-09-09T14:21:27;4.00;;;1.03;;
1679;SDS011;838;51.794;12.258;2022-09-09T14:23:57;2.57;;;0.50;;
1679;SDS011;838;51.794;12.258;2022-09-09T14:26:23;3.50;;;0.70;;
1679;SDS011;838;51.794;12.258;2022-09-09T14:28:49;3.90;;;0.77;;
1679;SDS011;838;51.794;12.258;2022-09-09T14:31:22;5.40;;;0.80;;
1679;SDS011;838;51.794;12.258;2022-09-09T14:33:48;3.20;;;0.73;;
1679;SDS011;838;51.794;12.258;2022-09-09T14:36:18;4.57;;;1.27;;
1679;SDS011;838;51.794;12.258;2022-09-09T14:38:46;3.90;;;0.73;;
1679;SDS011;838;51.794;12.258;2022-09-09T14:41:13;4.73;;;0.70;;
1679;SDS011;838;51.794;12.258;2022-09-09T14:43:43;2.50;;;0.60;;
1679;SDS011;838;51.794;12.258;2022-09-09T14:46:10;2.23;;;0.47;;
1679;SDS011;838;51.794;12.258;2022-09-09T14:48:40;4.73;;;0.83;;
1679;SDS011;838;51.794;12.258;2022-09-09T14:51:07;3.80;;;0.90;;
1679;SDS011;838;51.794;12.258;2022-09-09T14:53:33;5.23;;;1.50;;
1679;SDS011;838;51.794;12.258;2022-09-09T14:56:03;3.80;;;0.90;;
1679;SDS011;838;51.794;12.258;2022-09-09T14:58:31;6.53;;;1.00;;
1679;SDS011;838;51.794;12.258;2022-09-09T15:01:01;5.07;;;0.60;;
1679;SDS011;838;51.794;12.258;2022-09-09T15:03:29;4.50;;;0.67;;
1679;SDS011;838;51.794;12.258;2022-09-09T15:05:54;4.40;;;0.43;;
1679;SDS011;838;51.794;12.258;2022-09-09T15:08:31;2.40;;;0.50;;
1679;SDS011;838;51.794;12.258;2022-09-09T15:11:00;3.30;;;0.60;;
1679;SDS011;838;51.794;12.258;2022-09-09T15:13:30;2.43;;;0.50;;
1679;SDS011;838;51.794;12.258;2022-09-09T15:16:00;2.10;;;0.40;;
1679;SDS011;838;51.794;12.258;2022-09-09T15:18:33;3.70;;;0.60;;
1679;SDS011;838;51.794;12.258;2022-09-09T15:21:01;3.10;;;0.70;;
1679;SDS011;838;51.794;12.258;2022-09-09T15:23:33;3.90;;;0.50;;
1679;SDS011;838;51.794;12.258;2022-09-09T15:26:01;2.70;;;0.70;;
1679;SDS011;838;51.794;12.258;2022-09-09T15:28:27;2.83;;;0.57;;
1679;SDS011;838;51.794;12.258;2022-09-09T15:30:59;2.63;;;0.63;;
1679;SDS011;838;51.794;12.258;2022-09-09T15:33:32;3.67;;;0.40;;
1679;SDS011;838;51.794;12.258;2022-09-09T15:35:59;4.33;;;0.80;;
1679;SDS011;838;51.794;12.258;2022-09-09T15:38:28;2.03;;;0.50;;
1679;SDS011;838;51.794;12.258;2022-09-09T15:40:56;3.10;;;0.77;;
1679;SDS011;838;51.794;12.258;2022-09-09T15:43:22;2.70;;;0.80;;
1679;SDS011;838;51.794;12.258;2022-09-09T15:45:49;3.27;;;0.50;;
1679;SDS011;838;51.794;12.258;2022-09-09T15:48:19;4.30;;;0.60;;
1679;SDS011;838;51.794;12.258;2022-09-09T15:51:01;3.80;;;0.87;;
1679;SDS011;838;51.794;12.258;2022-09-09T15:53:30;3.23;;;0.67;;
1679;SDS011;838;51.794;12.258;2022-09-09T15:55:59;2.70;;;0.60;;
1679;SDS011;838;51.794;12.258;2022-09-09T15:58:29;2.73;;;0.50;;
1679;SDS011;838;51.794;12.258;2022-09-09T16:01:03;2.93;;;0.50;;
1679;SDS011;838;51.794;12.258;2022-09-09T16:03:37;3.00;;;0.43;;
1679;SDS011;838;51.794;12.258;2022-09-09T16:06:06;1.70;;;0.30;;
1679;SDS011;838;51.794;12.258;2022-09-09T16:08:33;3.00;;;0.50;;
1679;SDS011;838;51.794;12.258;2022-09-09T16:11:11;2.13;;;0.43;;
1679;SDS011;838;51.794;12.258;2022-09-09T16:13:43;2.20;;;0.50;;
1679;SDS011;838;51.794;12.258;2022-09-09T16:16:14;1.90;;;0.60;;
1679;SDS011;838;51.794;12.258;2022-09-09T16:18:42;2.97;;;0.60;;
1679;SDS011;838;51.794;12.258;2022-09-09T16:21:14;2.33;;;0.50;;
1679;SDS011;838;51.794;12.258;2022-09-09T16:23:43;2.43;;;0.50;;
1679;SDS011;838;51.794;12.258;2022-09-09T16:26:13;2.40;;;0.50;;
1679;SDS011;838;51.794;12.258;2022-09-09T16:28:40;3.20;;;0.77;;
1679;SDS011;838;51.794;12.258;2022-09-09T16:31:07;3.90;;;0.80;;
1679;SDS011;838;51.794;12.258;2022-09-09T16:33:35;3.50;;;0.60;;
1679;SDS011;838;51.794;12.258;2022-09-09T16:36:05;2.87;;;0.47;;
1679;SDS011;838;51.794;12.258;2022-09-09T16:38:31;2.60;;;0.50;;
1679;SDS011;838;51.794;12.258;2022-09-09T16:41:01;2.10;;;0.40;;
1679;SDS011;838;51.794;12.258;2022-09-09T16:43:30;1.70;;;0.30;;
1679;SDS011;838;51.794;12.258;2022-09-09T16:45:55;2.33;;;0.60;;
1679;SDS011;838;51.794;12.258;2022-09-09T16:48:21;3.90;;;0.50;;
1679;SDS011;838;51.794;12.258;2022-09-09T16:50:47;4.13;;;0.67;;
1679;SDS011;838;51.794;12.258;2022-09-09T16:53:13;3.40;;;0.40;;
1679;SDS011;838;51.794;12.258;2022-09-09T16:55:40;2.80;;;0.67;;
1679;SDS011;838;51.794;12.258;2022-09-09T16:58:08;2.27;;;0.50;;
1679;SDS011;838;51.794;12.258;2022-09-09T17:00:35;2.03;;;0.43;;
1679;SDS011;838;51.794;12.258;2022-09-09T17:03:01;4.27;;;0.57;;
1679;SDS011;838;51.794;12.258;2022-09-09T17:05:27;2.10;;;0.40;;
1679;SDS011;838;51.794;12.258;2022-09-09T17:07:53;2.90;;;0.40;;
1679;SDS011;838;51.794;12.258;2022-09-09T17:10:22;2.27;;;0.40;;
1679;SDS011;838;51.794;12.258;2022-09-09T17:12:49;2.90;;;0.50;;
1679;SDS011;838;51.794;12.258;2022-09-09T17:15:14;3.07;;;0.60;;
1679;SDS011;838;51.794;12.258;2022-09-09T17:17:40;2.50;;;0.40;;
1679;SDS011;838;51.794;12.258;2022-09-09T17:20:10;3.70;;;0.70;;
1679;SDS011;838;51.794;12.258;2022-09-09T17:22:36;2.20;;;0.50;;
1679;SDS011;838;51.794;12.258;2022-09-09T17:25:01;3.33;;;0.70;;
1679;SDS011;838;51.794;12.258;2022-09-09T17:27:28;3.20;;;0.50;;
1679;SDS011;838;51.794;12.258;2022-09-09T17:29:56;2.27;;;0.60;;
1679;SDS011;838;51.794;12.258;2022-09-09T17:32:23;1.97;;;0.50;;
1679;SDS011;838;51.794;12.258;2022-09-09T17:34:50;4.10;;;0.50;;